createdAt,value
2019-03-27T00:00:16.356Z,4.2
2019-03-27T00:01:05.859Z,4.2
2019-03-27T00:01:56.209Z,4.2
2019-03-27T00:02:46.536Z,4.2
2019-03-27T00:03:36.313Z,4.2
2019-03-27T00:04:26.105Z,4.2
2019-03-27T00:05:16.431Z,4.3
2019-03-27T00:06:06.223Z,4.3
2019-03-27T00:06:56.563Z,4.3
2019-03-27T00:07:46.615Z,4.3
2019-03-27T00:08:36.938Z,4.3
2019-03-27T00:09:27.018Z,4.3
2019-03-27T00:10:16.823Z,4.3
2019-03-27T00:11:06.863Z,4.3
2019-03-27T00:11:56.910Z,4.3
2019-03-27T00:12:47.290Z,4.3
2019-03-27T00:13:37.334Z,4.3
2019-03-27T00:14:27.170Z,4.3
2019-03-27T00:15:17.443Z,4.3
2019-03-27T00:16:07.497Z,4.3
2019-03-27T00:16:57.568Z,4.3
2019-03-27T00:17:47.346Z,4.3
2019-03-27T00:18:37.678Z,4.3
2019-03-27T00:19:27.503Z,4.3
2019-03-27T00:20:17.329Z,4.3
2019-03-27T00:21:07.102Z,4.3
2019-03-27T00:21:57.917Z,4.3
2019-03-27T00:22:48.000Z,4.4
2019-03-27T00:23:38.033Z,4.4
2019-03-27T00:24:27.842Z,4.4
2019-03-27T00:25:18.163Z,4.4
2019-03-27T00:26:07.948Z,4.4
2019-03-27T00:26:58.277Z,4.4
2019-03-27T00:27:48.347Z,4.4
2019-03-27T00:28:38.428Z,4.4
2019-03-27T00:29:28.462Z,4.4
2019-03-27T00:30:18.580Z,4.4
2019-03-27T00:31:11.539Z,4.4
2019-03-27T00:31:58.637Z,4.4
2019-03-27T00:32:48.697Z,4.4
2019-03-27T00:33:38.494Z,4.4
2019-03-27T00:34:28.829Z,4.4
2019-03-27T00:35:18.340Z,4.4
2019-03-27T00:36:08.947Z,4.4
2019-03-27T00:36:58.772Z,4.4
2019-03-27T00:37:48.524Z,4.4
2019-03-27T00:38:39.125Z,4.4
2019-03-27T00:39:28.914Z,4.4
2019-03-27T00:40:18.689Z,4.4
2019-03-27T00:41:09.304Z,4.4
2019-03-27T00:41:59.144Z,4.5
2019-03-27T00:42:49.150Z,4.5
2019-03-27T00:43:39.481Z,4.5
2019-03-27T00:44:29.549Z,4.5
2019-03-27T00:45:28.793Z,4.5
2019-03-27T00:46:09.394Z,4.5
2019-03-27T00:46:59.459Z,4.5
2019-03-27T00:47:49.794Z,4.5
2019-03-27T00:48:39.566Z,4.5
2019-03-27T00:49:29.898Z,4.5
2019-03-27T00:50:19.706Z,4.5
2019-03-27T00:51:10.095Z,4.5
2019-03-27T00:52:00.094Z,4.5
2019-03-27T00:52:50.156Z,4.5
2019-03-27T00:53:39.661Z,4.5
2019-03-27T00:54:29.983Z,4.5
2019-03-27T00:55:20.334Z,4.5
2019-03-27T00:56:09.932Z,4.5
2019-03-27T00:57:00.473Z,4.6
2019-03-27T00:57:50.239Z,4.5
2019-03-27T00:58:40.053Z,4.6
2019-03-27T00:59:30.188Z,4.6
2019-03-27T01:00:20.775Z,4.6
2019-03-27T01:01:10.483Z,4.6
2019-03-27T01:02:00.570Z,4.6
2019-03-27T01:02:50.878Z,4.6
2019-03-27T01:03:40.935Z,4.6
2019-03-27T01:04:30.723Z,4.6
2019-03-27T01:05:20.778Z,4.6
2019-03-27T01:06:11.132Z,4.6
2019-03-27T01:07:01.264Z,4.6
2019-03-27T01:07:50.966Z,4.6
2019-03-27T01:08:41.297Z,4.6
2019-03-27T01:09:31.125Z,4.6
2019-03-27T01:10:21.163Z,4.6
2019-03-27T01:11:11.482Z,4.6
2019-03-27T01:12:01.590Z,4.6
2019-03-27T01:12:51.602Z,4.6
2019-03-27T01:13:41.702Z,4.6
2019-03-27T01:14:31.722Z,4.6
2019-03-27T01:15:21.250Z,4.6
2019-03-27T01:16:11.578Z,4.6
2019-03-27T01:17:01.695Z,4.6
2019-03-27T01:17:51.972Z,4.6
2019-03-27T01:18:41.760Z,4.6
2019-03-27T01:19:32.094Z,4.6
2019-03-27T01:20:21.880Z,4.6
2019-03-27T01:21:12.204Z,4.6
2019-03-27T01:22:01.722Z,4.6
2019-03-27T01:22:52.322Z,4.6
2019-03-27T01:23:42.500Z,4.6
2019-03-27T01:24:32.447Z,4.6
2019-03-27T01:25:22.259Z,4.6
2019-03-27T01:26:12.581Z,4.6
2019-03-27T01:27:02.706Z,4.6
2019-03-27T01:27:52.419Z,4.6
2019-03-27T01:28:42.745Z,4.6
2019-03-27T01:29:32.541Z,4.6
2019-03-27T01:30:22.909Z,4.6
2019-03-27T01:31:12.944Z,4.6
2019-03-27T01:32:02.708Z,4.6
2019-03-27T01:32:53.046Z,4.6
2019-03-27T01:33:42.831Z,4.6
2019-03-27T01:34:33.234Z,4.6
2019-03-27T01:35:23.256Z,4.6
2019-03-27T01:36:12.736Z,4.6
2019-03-27T01:37:03.360Z,4.6
2019-03-27T01:37:53.134Z,4.6
2019-03-27T01:38:42.908Z,4.6
2019-03-27T01:39:33.542Z,4.6
2019-03-27T01:40:23.055Z,4.6
2019-03-27T01:41:13.651Z,4.6
2019-03-27T01:42:03.711Z,4.6
2019-03-27T01:42:53.498Z,4.6
2019-03-27T01:43:43.558Z,4.6
2019-03-27T01:44:33.897Z,4.6
2019-03-27T01:45:23.673Z,4.6
2019-03-27T01:46:14.011Z,4.6
2019-03-27T01:47:03.284Z,4.6
2019-03-27T01:47:54.118Z,4.6
2019-03-27T01:48:44.192Z,4.6
2019-03-27T01:49:34.260Z,4.6
2019-03-27T01:50:23.793Z,4.6
2019-03-27T01:51:14.384Z,4.6
2019-03-27T01:52:04.447Z,4.6
2019-03-27T01:52:54.215Z,4.6
2019-03-27T01:53:44.282Z,4.6
2019-03-27T01:54:34.617Z,4.6
2019-03-27T01:55:24.392Z,4.6
2019-03-27T01:56:14.755Z,4.5
2019-03-27T01:57:04.545Z,4.5
2019-03-27T01:57:54.315Z,4.5
2019-03-27T01:58:44.917Z,4.5
2019-03-27T01:59:34.722Z,4.5
2019-03-27T02:00:25.045Z,4.5
2019-03-27T02:01:14.836Z,4.5
2019-03-27T02:02:05.177Z,4.4
2019-03-27T02:02:55.224Z,4.4
2019-03-27T02:03:45.277Z,4.4
2019-03-27T02:04:35.342Z,4.4
2019-03-27T02:05:25.416Z,4.4
2019-03-27T02:06:15.464Z,4.4
2019-03-27T02:07:05.521Z,4.4
2019-03-27T02:07:55.583Z,4.4
2019-03-27T02:08:45.644Z,4.4
2019-03-27T02:09:35.142Z,4.4
2019-03-27T02:10:25.804Z,4.4
2019-03-27T02:11:15.838Z,4.4
2019-03-27T02:12:05.886Z,4.4
2019-03-27T02:12:55.948Z,4.3
2019-03-27T02:13:46.017Z,4.3
2019-03-27T02:14:36.074Z,4.3
2019-03-27T02:15:26.131Z,4.3
2019-03-27T02:16:15.894Z,4.3
2019-03-27T02:17:06.257Z,4.3
2019-03-27T02:17:56.026Z,4.3
2019-03-27T02:18:46.153Z,4.3
2019-03-27T02:19:36.159Z,4.3
2019-03-27T02:20:26.483Z,4.2
2019-03-27T02:21:16.003Z,4.2
2019-03-27T02:22:06.641Z,4.2
2019-03-27T02:22:56.123Z,4.1
2019-03-27T02:23:46.720Z,4.1
2019-03-27T02:24:36.793Z,4.1
2019-03-27T02:25:26.840Z,4.1
2019-03-27T02:26:16.913Z,4.1
2019-03-27T02:27:07.056Z,4.1
2019-03-27T02:27:56.473Z,4.1
2019-03-27T02:28:46.818Z,4.1
2019-03-27T02:29:36.883Z,4
2019-03-27T02:30:27.372Z,4
2019-03-27T02:31:17.046Z,4
2019-03-27T02:32:07.078Z,4
2019-03-27T02:32:57.428Z,4
2019-03-27T02:33:47.287Z,4
2019-03-27T02:34:37.273Z,3.9
2019-03-27T02:35:27.311Z,3.9
2019-03-27T02:36:17.659Z,3.9
2019-03-27T02:37:07.734Z,3.9
2019-03-27T02:37:57.781Z,3.9
2019-03-27T02:38:47.951Z,3.9
2019-03-27T02:39:37.651Z,3.9
2019-03-27T02:40:27.946Z,3.9
2019-03-27T02:41:18.162Z,3.9
2019-03-27T02:42:07.562Z,3.9
2019-03-27T02:42:57.877Z,3.9
2019-03-27T02:43:48.217Z,3.9
2019-03-27T02:44:38.284Z,3.9
2019-03-27T02:45:28.362Z,3.9
2019-03-27T02:46:26.978Z,3.9
2019-03-27T02:47:08.472Z,3.9
2019-03-27T02:47:58.503Z,3.9
2019-03-27T02:48:48.581Z,3.9
2019-03-27T02:49:38.632Z,3.9
2019-03-27T02:50:28.805Z,3.9
2019-03-27T02:51:18.766Z,3.9
2019-03-27T02:52:08.824Z,3.9
2019-03-27T02:52:58.890Z,3.9
2019-03-27T02:53:48.954Z,3.9
2019-03-27T02:54:38.713Z,3.9
2019-03-27T02:55:29.032Z,3.9
2019-03-27T02:56:19.127Z,3.9
2019-03-27T02:57:09.147Z,3.9
2019-03-27T02:57:58.677Z,3.9
2019-03-27T02:58:49.307Z,3.9
2019-03-27T02:59:39.346Z,3.9
2019-03-27T03:00:29.391Z,3.8
2019-03-27T03:01:19.208Z,3.8
2019-03-27T03:02:09.274Z,3.8
2019-03-27T03:02:59.325Z,3.8
2019-03-27T03:03:49.656Z,3.8
2019-03-27T03:07:20.159Z,3.8
2019-03-27T03:08:10.509Z,3.7
2019-03-27T03:09:00.322Z,3.8
2019-03-27T03:09:50.741Z,3.7
2019-03-27T03:10:40.446Z,3.7
2019-03-27T03:11:30.749Z,3.7
2019-03-27T03:12:20.771Z,3.6
2019-03-27T03:13:10.841Z,3.6
2019-03-27T03:14:00.630Z,3.6
2019-03-27T03:14:50.683Z,3.6
2019-03-27T03:15:41.032Z,3.6
2019-03-27T03:16:44.719Z,3.6
2019-03-27T03:17:20.859Z,3.6
2019-03-27T03:18:11.226Z,3.6
2019-03-27T03:19:01.285Z,3.6
2019-03-27T03:19:51.312Z,3.6
2019-03-27T03:20:41.386Z,3.5
2019-03-27T03:21:30.906Z,3.5
2019-03-27T03:22:21.305Z,3.5
2019-03-27T03:23:11.542Z,3.5
2019-03-27T03:24:01.783Z,3.5
2019-03-27T03:24:51.666Z,3.4
2019-03-27T03:25:41.757Z,3.4
2019-03-27T03:26:31.803Z,3.4
2019-03-27T03:27:21.867Z,3.4
2019-03-27T03:28:11.923Z,3.4
2019-03-27T03:29:01.996Z,3.4
2019-03-27T03:29:52.148Z,3.3
2019-03-27T03:30:42.206Z,3.3
2019-03-27T03:31:32.219Z,3.3
2019-03-27T03:32:22.273Z,3.3
2019-03-27T03:33:12.103Z,3.3
2019-03-27T03:34:02.589Z,3.3
2019-03-27T03:34:52.532Z,3.2
2019-03-27T03:35:42.500Z,3.2
2019-03-27T03:36:32.392Z,3.2
2019-03-27T03:37:22.609Z,3.2
2019-03-27T03:38:12.442Z,3.2
2019-03-27T03:39:02.683Z,3.2
2019-03-27T03:39:52.537Z,3.2
2019-03-27T03:40:42.847Z,3.1
2019-03-27T03:41:32.882Z,3.1
2019-03-27T03:42:22.683Z,3.1
2019-03-27T03:43:13.012Z,3.1
2019-03-27T03:44:02.825Z,3.1
2019-03-27T03:44:53.157Z,3.1
2019-03-27T03:45:42.913Z,3.1
2019-03-27T03:46:32.706Z,3.1
2019-03-27T03:47:23.310Z,3.1
2019-03-27T03:48:13.085Z,3.1
2019-03-27T03:49:03.466Z,3.1
2019-03-27T03:49:53.521Z,3.1
2019-03-27T03:50:43.757Z,3.1
2019-03-27T03:51:33.622Z,3
2019-03-27T03:52:23.401Z,3
2019-03-27T03:53:13.767Z,3
2019-03-27T03:54:03.542Z,3
2019-03-27T03:54:53.888Z,3
2019-03-27T03:55:43.966Z,3
2019-03-27T03:56:33.978Z,2.9
2019-03-27T03:57:24.032Z,2.9
2019-03-27T03:58:14.139Z,2.9
2019-03-27T03:59:04.162Z,2.9
2019-03-27T03:59:54.252Z,2.9
2019-03-27T04:00:44.318Z,2.9
2019-03-27T04:01:34.344Z,2.9
2019-03-27T04:02:24.019Z,2.9
2019-03-27T04:03:14.176Z,2.8
2019-03-27T04:04:04.569Z,2.8
2019-03-27T04:04:54.584Z,2.8
2019-03-27T04:05:44.641Z,2.8
2019-03-27T04:06:34.434Z,2.8
2019-03-27T04:07:24.763Z,2.8
2019-03-27T04:08:14.838Z,2.7
2019-03-27T04:09:04.622Z,2.7
2019-03-27T04:09:54.666Z,2.7
2019-03-27T04:10:45.237Z,2.6
2019-03-27T04:11:34.762Z,2.6
2019-03-27T04:12:24.843Z,2.6
2019-03-27T04:13:15.222Z,2.6
2019-03-27T04:14:04.973Z,2.6
2019-03-27T04:14:55.021Z,2.6
2019-03-27T04:15:45.380Z,2.5
2019-03-27T04:16:35.437Z,2.5
2019-03-27T04:17:25.472Z,2.5
2019-03-27T04:18:15.569Z,2.5
2019-03-27T04:19:05.646Z,2.4
2019-03-27T04:19:55.663Z,2.4
2019-03-27T04:20:45.741Z,2.4
2019-03-27T04:21:35.795Z,2.4
2019-03-27T04:22:25.859Z,2.4
2019-03-27T04:23:15.632Z,2.4
2019-03-27T04:24:05.943Z,2.4
2019-03-27T04:24:56.019Z,2.4
2019-03-27T04:26:12.445Z,2.4
2019-03-27T04:26:36.257Z,2.3
2019-03-27T04:27:25.926Z,2.3
2019-03-27T04:28:16.285Z,2.4
2019-03-27T04:29:06.293Z,2.3
2019-03-27T04:29:56.399Z,2.3
2019-03-27T04:30:46.458Z,2.3
2019-03-27T04:31:36.491Z,2.3
2019-03-27T04:32:26.583Z,2.3
2019-03-27T04:33:16.388Z,2.3
2019-03-27T04:34:06.399Z,2.3
2019-03-27T04:34:56.467Z,2.3
2019-03-27T04:35:46.797Z,2.3
2019-03-27T04:36:36.871Z,2.3
2019-03-27T04:37:26.938Z,2.3
2019-03-27T04:38:16.727Z,2.3
2019-03-27T04:39:07.043Z,2.3
2019-03-27T04:39:57.086Z,2.3
2019-03-27T04:40:46.887Z,2.3
2019-03-27T04:41:36.419Z,2.3
2019-03-27T04:42:27.296Z,2.3
2019-03-27T04:43:17.356Z,2.3
2019-03-27T04:44:07.405Z,2.3
2019-03-27T04:44:57.458Z,2.3
2019-03-27T04:45:47.506Z,2.3
2019-03-27T04:46:37.571Z,2.3
2019-03-27T04:47:34.281Z,2.3
2019-03-27T04:48:17.436Z,2.3
2019-03-27T04:49:09.847Z,2.3
2019-03-27T04:49:57.262Z,2.3
2019-03-27T04:50:47.890Z,2.3
2019-03-27T04:51:37.413Z,2.3
2019-03-27T04:52:27.708Z,2.3
2019-03-27T04:53:17.777Z,2.3
2019-03-27T04:54:08.106Z,2.3
2019-03-27T04:54:58.168Z,2.3
2019-03-27T04:55:47.950Z,2.3
2019-03-27T04:56:38.295Z,2.3
2019-03-27T04:57:28.081Z,2.4
2019-03-27T04:58:18.506Z,2.4
2019-03-27T04:59:08.460Z,2.4
2019-03-27T04:59:57.970Z,2.4
2019-03-27T05:00:48.332Z,2.4
2019-03-27T05:01:38.719Z,2.4
2019-03-27T05:02:28.713Z,2.4
2019-03-27T05:03:18.779Z,2.4
2019-03-27T05:04:08.846Z,2.4
2019-03-27T05:05:48.686Z,2.5
2019-03-27T05:06:38.732Z,2.5
2019-03-27T05:07:29.065Z,2.6
2019-03-27T05:08:18.940Z,2.6
2019-03-27T05:09:09.197Z,2.6
2019-03-27T05:09:59.261Z,2.7
2019-03-27T05:10:48.754Z,2.8
2019-03-27T05:11:39.106Z,2.8
2019-03-27T05:12:29.519Z,2.9
2019-03-27T05:13:19.224Z,3.1
2019-03-27T05:14:09.558Z,3.1
2019-03-27T05:14:59.344Z,3.3
2019-03-27T05:15:49.749Z,3.4
2019-03-27T05:16:39.459Z,3.6
2019-03-27T05:17:29.246Z,3.8
2019-03-27T05:18:19.846Z,3.9
2019-03-27T05:19:09.916Z,4.1
2019-03-27T05:19:59.781Z,4.3
2019-03-27T05:20:49.515Z,4.4
2019-03-27T05:21:40.090Z,4.6
2019-03-27T05:22:29.900Z,4.9
2019-03-27T05:23:20.198Z,5.1
2019-03-27T05:24:10.003Z,5.4
2019-03-27T05:25:00.388Z,5.6
2019-03-27T05:25:50.113Z,5.9
2019-03-27T05:26:40.441Z,6.2
2019-03-27T05:27:30.505Z,6.5
2019-03-27T05:28:20.568Z,6.8
2019-03-27T05:29:10.625Z,7.1
2019-03-27T05:30:00.513Z,7.4
2019-03-27T05:30:50.745Z,7.7
2019-03-27T05:31:40.829Z,8.1
2019-03-27T05:32:30.593Z,8.4
2019-03-27T05:33:20.930Z,8.7
2019-03-27T05:34:10.703Z,9.1
2019-03-27T05:35:00.918Z,9.4
2019-03-27T05:35:51.168Z,9.7
2019-03-27T05:36:41.196Z,10.1
2019-03-27T05:37:31.235Z,10.3
2019-03-27T05:38:20.733Z,10.7
2019-03-27T05:39:14.935Z,11
2019-03-27T05:40:01.516Z,11.3
2019-03-27T05:40:51.457Z,11.6
2019-03-27T05:41:41.537Z,11.9
2019-03-27T05:42:31.590Z,12.3
2019-03-27T05:43:21.653Z,12.6
2019-03-27T05:44:11.724Z,12.9
2019-03-27T05:45:01.686Z,13.3
2019-03-27T05:45:51.562Z,13.6
2019-03-27T05:46:41.905Z,13.9
2019-03-27T05:47:31.952Z,14.2
2019-03-27T05:48:22.010Z,14.5
2019-03-27T05:49:11.814Z,14.8
2019-03-27T05:50:02.409Z,15.1
2019-03-27T05:50:52.211Z,15.4
2019-03-27T05:51:42.335Z,15.8
2019-03-27T05:52:32.314Z,16.1
2019-03-27T05:53:22.384Z,16.4
2019-03-27T05:54:12.162Z,16.8
2019-03-27T05:55:01.955Z,17.1
2019-03-27T05:55:52.002Z,17.4
2019-03-27T05:56:42.614Z,17.7
2019-03-27T05:57:32.673Z,18.1
2019-03-27T05:58:22.738Z,18.3
2019-03-27T05:59:12.787Z,18.6
2019-03-27T06:00:02.855Z,18.9
2019-03-27T06:00:52.639Z,19.3
2019-03-27T06:01:42.696Z,19.6
2019-03-27T06:02:33.044Z,19.9
2019-03-27T06:03:22.820Z,20.2
2019-03-27T06:05:19.999Z,20.8
2019-03-27T06:06:10.365Z,21.2
2019-03-27T06:07:00.408Z,21.5
2019-03-27T06:07:50.461Z,21.8
2019-03-27T06:08:39.974Z,22.1
2019-03-27T06:09:30.404Z,22.5
2019-03-27T06:10:20.366Z,22.8
2019-03-27T06:11:10.708Z,23.2
2019-03-27T06:12:00.763Z,23.5
2019-03-27T06:12:50.826Z,23.8
2019-03-27T06:13:40.953Z,24.1
2019-03-27T06:14:30.673Z,24.4
2019-03-27T06:15:20.999Z,24.8
2019-03-27T06:16:11.058Z,25
2019-03-27T06:17:00.888Z,25.6
2019-03-27T06:17:51.226Z,25.7
2019-03-27T06:18:41.253Z,26.1
2019-03-27T06:19:31.287Z,26.3
2019-03-27T06:20:21.342Z,26.7
2019-03-27T06:21:11.413Z,27
2019-03-27T06:22:01.464Z,27.4
2019-03-27T06:22:50.992Z,27.7
2019-03-27T06:23:41.595Z,28.1
2019-03-27T06:24:31.380Z,28.4
2019-03-27T06:25:21.471Z,28.8
2019-03-27T06:26:11.793Z,29.1
2019-03-27T06:27:01.562Z,29.4
2019-03-27T06:27:51.430Z,29.8
2019-03-27T06:28:41.967Z,30.1
2019-03-27T06:29:31.743Z,30.5
2019-03-27T06:30:22.084Z,30.9
2019-03-27T06:31:11.869Z,31.3
2019-03-27T06:32:01.952Z,31.6
2019-03-27T06:32:51.977Z,32.1
2019-03-27T06:33:42.314Z,32.5
2019-03-27T06:34:46.784Z,32.9
2019-03-27T06:35:22.190Z,33.4
2019-03-27T06:36:12.238Z,33.8
2019-03-27T06:37:02.280Z,34.2
2019-03-27T06:37:52.314Z,34.6
2019-03-27T06:38:42.674Z,35.1
2019-03-27T06:39:32.744Z,35.5
2019-03-27T06:40:22.807Z,36
2019-03-27T06:41:12.899Z,36.4
2019-03-27T06:42:02.359Z,36.9
2019-03-27T06:42:53.019Z,37.3
2019-03-27T06:43:43.039Z,37.7
2019-03-27T06:44:32.799Z,38.1
2019-03-27T06:45:23.149Z,38.5
2019-03-27T06:46:13.214Z,38.9
2019-03-27T06:47:03.267Z,39.3
2019-03-27T06:47:53.063Z,39.8
2019-03-27T06:48:43.386Z,40.1
2019-03-27T06:49:33.459Z,40.4
2019-03-27T06:50:23.511Z,40.8
2019-03-27T06:51:13.568Z,41.3
2019-03-27T06:52:03.342Z,41.8
2019-03-27T06:52:53.413Z,42.1
2019-03-27T06:53:43.748Z,42.6
2019-03-27T06:54:33.536Z,43
2019-03-27T06:55:23.868Z,43.4
2019-03-27T06:56:13.111Z,43.8
2019-03-27T06:57:04.076Z,44.3
2019-03-27T06:57:54.301Z,44.6
2019-03-27T06:58:56.655Z,45
2019-03-27T06:59:34.163Z,45.5
2019-03-27T07:00:23.943Z,45.8
2019-03-27T07:01:14.286Z,46.1
2019-03-27T07:02:04.443Z,46.5
2019-03-27T07:02:54.403Z,46.9
2019-03-27T07:05:34.381Z,48.1
2019-03-27T07:06:24.398Z,49.1
2019-03-27T07:07:13.195Z,49.6
2019-03-27T07:08:02.510Z,49.7
2019-03-27T07:08:53.315Z,50.1
2019-03-27T07:09:44.443Z,50.6
2019-03-27T07:10:33.178Z,51.1
2019-03-27T07:11:22.950Z,51.5
2019-03-27T07:13:53.685Z,52.6
2019-03-27T07:14:43.477Z,53
2019-03-27T07:15:37.157Z,53.4
2019-03-27T07:16:23.310Z,53.8
2019-03-27T07:17:13.652Z,54.2
2019-03-27T07:18:03.996Z,54.4
2019-03-27T07:18:54.030Z,54.4
2019-03-27T07:20:33.887Z,54.2
2019-03-27T07:21:24.462Z,54.3
2019-03-27T07:22:14.303Z,54.3
2019-03-27T07:23:04.349Z,54.4
2019-03-27T07:23:54.397Z,54.6
2019-03-27T07:24:44.197Z,54.8
2019-03-27T07:25:34.257Z,55.1
2019-03-27T07:26:24.298Z,55.4
2019-03-27T07:27:14.631Z,55.8
2019-03-27T07:28:04.719Z,56.1
2019-03-27T07:28:54.482Z,57.3
2019-03-27T07:29:44.565Z,58.3
2019-03-27T07:30:34.893Z,56.9
2019-03-27T07:31:24.975Z,54.9
2019-03-27T07:32:14.749Z,51.4
2019-03-27T07:33:04.799Z,48.4
2019-03-27T07:33:54.908Z,46.8
2019-03-27T07:34:44.908Z,45.5
2019-03-27T07:35:34.972Z,44.9
2019-03-27T07:36:24.834Z,44.4
2019-03-27T07:37:15.373Z,44.2
2019-03-27T07:38:04.882Z,44.2
2019-03-27T07:38:55.486Z,44.5
2019-03-27T07:39:45.544Z,45
2019-03-27T07:40:35.615Z,45.3
2019-03-27T07:41:25.689Z,45.7
2019-03-27T07:42:15.733Z,46.1
2019-03-27T07:43:05.791Z,46.6
2019-03-27T07:43:55.290Z,47.1
2019-03-27T07:44:45.901Z,47.6
2019-03-27T07:45:35.961Z,47.7
2019-03-27T07:46:26.043Z,47.7
2019-03-27T07:47:16.080Z,47.6
2019-03-27T07:48:06.153Z,47.6
2019-03-27T07:48:56.256Z,47.7
2019-03-27T07:49:46.273Z,48.1
2019-03-27T07:50:36.062Z,48.6
2019-03-27T07:51:26.382Z,49.2
2019-03-27T07:52:16.440Z,49.6
2019-03-27T07:53:06.242Z,49.8
2019-03-27T07:53:56.567Z,49.8
2019-03-27T07:54:46.716Z,49.7
2019-03-27T07:55:36.787Z,49.8
2019-03-27T07:56:26.790Z,49.9
2019-03-27T07:57:16.552Z,50
2019-03-27T07:58:06.873Z,50.2
2019-03-27T07:59:00.273Z,50.6
2019-03-27T07:59:46.727Z,51.3
2019-03-27T08:00:37.137Z,52.1
2019-03-27T08:01:27.111Z,53.2
2019-03-27T08:02:17.159Z,54.3
2019-03-27T08:03:07.243Z,55.3
2019-03-27T08:03:57.288Z,56.1
2019-03-27T08:04:46.518Z,56.6
2019-03-27T08:05:37.126Z,56.8
2019-03-27T08:06:27.465Z,54.4
2019-03-27T08:07:28.822Z,51.9
2019-03-27T08:08:07.328Z,49.1
2019-03-27T08:08:57.382Z,47.9
2019-03-27T08:09:47.793Z,46.9
2019-03-27T08:10:37.208Z,46.3
2019-03-27T08:11:28.441Z,46.1
2019-03-27T08:12:17.903Z,46.3
2019-03-27T08:13:07.735Z,46.6
2019-03-27T08:13:58.013Z,47.3
2019-03-27T08:14:48.155Z,48.2
2019-03-27T08:15:41.648Z,49.3
2019-03-27T08:16:27.922Z,50.6
2019-03-27T08:17:17.980Z,51.4
2019-03-27T08:19:09.778Z,52.3
2019-03-27T08:19:48.439Z,52.3
2019-03-27T08:20:38.225Z,52.1
2019-03-27T08:21:32.101Z,51.6
2019-03-27T08:22:18.619Z,51.2
2019-03-27T08:23:08.411Z,50.9
2019-03-27T08:23:58.747Z,50.7
2019-03-27T08:24:48.257Z,50.8
2019-03-27T08:25:38.643Z,50.9
2019-03-27T08:26:28.917Z,51.3
2019-03-27T08:27:18.985Z,51.8
2019-03-27T08:28:08.774Z,52.5
2019-03-27T08:28:59.115Z,53.4
2019-03-27T08:29:48.897Z,54.3
2019-03-27T08:30:39.232Z,55.1
2019-03-27T08:31:29.002Z,56.1
2019-03-27T08:32:19.377Z,57.7
2019-03-27T08:33:09.414Z,57.3
2019-03-27T08:33:59.471Z,55.9
2019-03-27T08:34:49.269Z,53.9
2019-03-27T08:35:39.578Z,51.1
2019-03-27T08:36:29.664Z,48.8
2019-03-27T08:37:19.713Z,47.4
2019-03-27T08:38:09.499Z,46.8
2019-03-27T08:38:59.547Z,46.6
2019-03-27T08:39:49.673Z,46.9
2019-03-27T08:40:39.476Z,47.6
2019-03-27T08:41:30.010Z,48.5
2019-03-27T08:42:19.793Z,49.6
2019-03-27T08:43:26.806Z,50.8
2019-03-27T08:44:50.306Z,53.1
2019-03-27T08:45:40.308Z,54.3
2019-03-27T08:46:30.458Z,55.5
2019-03-27T08:47:20.153Z,57.5
2019-03-27T08:48:10.216Z,58.1
2019-03-27T08:49:00.287Z,57.5
2019-03-27T08:49:50.604Z,56.2
2019-03-27T08:50:40.666Z,53.9
2019-03-27T08:51:30.728Z,52.1
2019-03-27T08:52:20.796Z,49.8
2019-03-27T08:53:10.857Z,48.2
2019-03-27T08:54:00.920Z,46.9
2019-03-27T08:54:51.001Z,46.3
2019-03-27T08:55:41.032Z,45.8
2019-03-27T08:56:30.820Z,45.3
2019-03-27T08:57:21.199Z,44.7
2019-03-27T08:58:11.216Z,44.3
2019-03-27T08:59:01.007Z,43.9
2019-03-27T08:59:51.044Z,43.5
2019-03-27T09:00:41.660Z,43.1
2019-03-27T09:01:31.224Z,42.9
2019-03-27T09:02:21.591Z,43.1
2019-03-27T09:03:11.286Z,43.6
2019-03-27T09:04:01.921Z,44.1
2019-03-27T09:04:51.689Z,44.4
2019-03-27T09:05:41.750Z,44.6
2019-03-27T09:06:36.136Z,44.8
2019-03-27T09:07:21.911Z,44.9
2019-03-27T09:08:12.019Z,45
2019-03-27T09:09:16.372Z,45.3
2019-03-27T09:09:51.779Z,45.9
2019-03-27T09:10:42.111Z,46.4
2019-03-27T09:11:31.384Z,47.3
2019-03-27T09:12:21.963Z,48.1
2019-03-27T09:13:12.305Z,49.3
2019-03-27T09:14:02.357Z,50.5
2019-03-27T09:14:52.403Z,51.8
2019-03-27T09:15:42.476Z,53
2019-03-27T09:16:32.282Z,54.3
2019-03-27T09:17:22.311Z,56
2019-03-27T09:18:12.655Z,58
2019-03-27T09:19:02.709Z,58.2
2019-03-27T09:19:52.775Z,57.8
2019-03-27T09:20:42.560Z,55.9
2019-03-27T09:21:32.882Z,52.8
2019-03-27T09:22:22.995Z,49.8
2019-03-27T09:23:13.023Z,47.8
2019-03-27T09:24:03.125Z,47.1
2019-03-27T09:24:52.596Z,47.5
2019-03-27T09:25:42.915Z,48.4
2019-03-27T09:26:33.250Z,49.4
2019-03-27T09:27:23.027Z,50.6
2019-03-27T09:28:13.432Z,52.2
2019-03-27T09:29:03.447Z,52.9
2019-03-27T09:29:53.492Z,54.4
2019-03-27T09:30:43.564Z,56.1
2019-03-27T09:31:46.987Z,56.8
2019-03-27T09:32:23.394Z,57.3
2019-03-27T09:33:13.751Z,56.8
2019-03-27T09:34:03.522Z,55.9
2019-03-27T09:34:53.580Z,54.4
2019-03-27T09:35:43.915Z,53.5
2019-03-27T09:36:33.786Z,53.4
2019-03-27T09:37:24.024Z,54.1
2019-03-27T09:38:14.091Z,54.8
2019-03-27T09:39:04.159Z,55.4
2019-03-27T09:39:54.237Z,55.6
2019-03-27T09:40:43.989Z,55.5
2019-03-27T09:41:34.343Z,55.3
2019-03-27T09:42:24.125Z,55.2
2019-03-27T09:43:13.629Z,55.2
2019-03-27T09:44:04.511Z,55.4
2019-03-27T09:44:54.796Z,55.8
2019-03-27T09:45:44.632Z,56.1
2019-03-27T09:46:34.432Z,56.3
2019-03-27T09:47:24.766Z,56.4
2019-03-27T09:48:14.818Z,56.3
2019-03-27T09:49:04.881Z,56.2
2019-03-27T09:49:54.945Z,56.1
2019-03-27T09:50:44.998Z,56.2
2019-03-27T09:51:34.776Z,56.2
2019-03-27T09:52:24.881Z,56.3
2019-03-27T09:53:15.172Z,56.4
2019-03-27T09:54:05.243Z,56.4
2019-03-27T09:54:55.021Z,56.3
2019-03-27T09:55:44.798Z,56.3
2019-03-27T09:56:35.416Z,56.4
2019-03-27T09:57:25.199Z,56.4
2019-03-27T09:58:15.548Z,56.6
2019-03-27T09:59:08.031Z,56.8
2019-03-27T09:59:55.115Z,56.9
2019-03-27T10:00:45.707Z,57.2
2019-03-27T10:01:35.780Z,57.3
2019-03-27T10:02:25.553Z,57.3
2019-03-27T10:03:15.628Z,57.4
2019-03-27T10:04:05.945Z,57.4
2019-03-27T10:06:20.080Z,57.8
2019-03-27T10:07:10.073Z,58.1
2019-03-27T10:07:59.933Z,58.4
2019-03-27T10:08:50.275Z,58.6
2019-03-27T10:09:40.357Z,58.7
2019-03-27T10:10:30.398Z,58.9
2019-03-27T10:11:23.706Z,59.1
2019-03-27T10:12:10.510Z,59.4
2019-03-27T10:13:00.566Z,59.6
2019-03-27T10:13:50.070Z,59.8
2019-03-27T10:14:40.672Z,60.1
2019-03-27T10:15:30.531Z,60.4
2019-03-27T10:16:20.967Z,60.6
2019-03-27T10:17:10.604Z,60.8
2019-03-27T10:18:00.367Z,60.9
2019-03-27T10:18:51.005Z,61
2019-03-27T10:19:40.512Z,61.1
2019-03-27T10:20:31.102Z,61.3
2019-03-27T10:21:20.896Z,61.4
2019-03-27T10:22:10.942Z,61.6
2019-03-27T10:23:01.374Z,61.8
2019-03-27T10:23:51.350Z,61.9
2019-03-27T10:24:40.927Z,62
2019-03-27T10:25:31.457Z,62.1
2019-03-27T10:26:21.257Z,62.1
2019-03-27T10:27:11.579Z,62
2019-03-27T10:28:01.710Z,62
2019-03-27T10:28:51.426Z,62.1
2019-03-27T10:29:41.756Z,62.2
2019-03-27T10:30:31.284Z,62.3
2019-03-27T10:31:21.873Z,62.4
2019-03-27T10:32:11.945Z,62.4
2019-03-27T10:33:01.731Z,62.3
2019-03-27T10:33:52.064Z,62.3
2019-03-27T10:34:41.840Z,62.2
2019-03-27T10:35:31.973Z,62.3
2019-03-27T10:36:22.231Z,62.3
2019-03-27T10:37:12.299Z,62.4
2019-03-27T10:38:01.799Z,62.4
2019-03-27T10:38:52.422Z,62.3
2019-03-27T10:39:42.471Z,62.3
2019-03-27T10:40:32.049Z,62.1
2019-03-27T10:41:22.593Z,62.2
2019-03-27T10:42:12.663Z,62.3
2019-03-27T10:43:02.461Z,62.4
2019-03-27T10:43:52.788Z,62.6
2019-03-27T10:44:42.571Z,62.8
2019-03-27T10:45:32.921Z,62.8
2019-03-27T10:46:22.682Z,62.8
2019-03-27T10:47:12.744Z,62.8
2019-03-27T10:48:03.085Z,62.8
2019-03-27T10:48:54.967Z,62.8
2019-03-27T10:49:43.205Z,62.8
2019-03-27T10:50:33.253Z,62.8
2019-03-27T10:51:23.325Z,62.8
2019-03-27T10:52:13.110Z,62.8
2019-03-27T10:53:03.438Z,62.5
2019-03-27T10:53:53.233Z,62.4
2019-03-27T10:54:43.566Z,62.4
2019-03-27T10:55:36.477Z,62.3
2019-03-27T10:56:23.412Z,62.3
2019-03-27T10:57:13.773Z,62.1
2019-03-27T10:58:04.087Z,62.1
2019-03-27T10:58:53.861Z,62
2019-03-27T10:59:43.930Z,62
2019-03-27T11:00:33.977Z,62.1
2019-03-27T11:01:24.080Z,62
2019-03-27T11:02:14.177Z,62
2019-03-27T11:03:03.910Z,62.1
2019-03-27T11:03:54.291Z,62
2019-03-27T11:04:44.016Z,61.8
2019-03-27T11:05:34.340Z,61.6
2019-03-27T11:06:24.400Z,61.6
2019-03-27T11:07:14.199Z,61.4
2019-03-27T11:08:04.544Z,61.3
2019-03-27T11:08:54.590Z,61.2
2019-03-27T11:09:44.386Z,61.1
2019-03-27T11:10:34.434Z,60.9
2019-03-27T11:11:24.222Z,60.8
2019-03-27T11:12:14.838Z,60.8
2019-03-27T11:13:04.629Z,60.6
2019-03-27T11:13:54.936Z,60.5
2019-03-27T11:14:45.004Z,60.4
2019-03-27T11:15:34.788Z,60.3
2019-03-27T11:16:25.136Z,60.2
2019-03-27T11:17:14.951Z,60
2019-03-27T11:18:05.256Z,59.9
2019-03-27T11:18:55.016Z,59.8
2019-03-27T11:19:45.366Z,59.8
2019-03-27T11:20:34.661Z,59.7
2019-03-27T11:21:25.494Z,59.6
2019-03-27T11:22:15.543Z,59.6
2019-03-27T11:23:05.618Z,59.6
2019-03-27T11:23:55.123Z,59.5
2019-03-27T11:24:45.723Z,59.6
2019-03-27T11:25:35.852Z,59.6
2019-03-27T11:26:25.585Z,59.6
2019-03-27T11:27:15.906Z,59.6
2019-03-27T11:28:05.426Z,59.6
2019-03-27T11:28:56.030Z,59.7
2019-03-27T11:29:45.617Z,59.7
2019-03-27T11:30:36.188Z,59.8
2019-03-27T11:31:26.222Z,59.9